sensor_id;sensor_type;location;lat;lon;timestamp;temperature;humidity
19972;DHT22;10147;16.402;102.848;2024-02-14T00:01:33;20.70;99.90
19972;DHT22;10147;16.402;102.848;2024-02-14T00:04:03;20.70;99.90
19972;DHT22;10147;16.402;102.848;2024-02-14T00:06:37;20.80;99.90
19972;DHT22;10147;16.402;102.848;2024-02-14T00:09:09;21.00;99.90
19972;DHT22;10147;16.402;102.848;2024-02-14T00:11:41;20.90;99.90
19972;DHT22;10147;16.402;102.848;2024-02-14T00:14:12;20.90;99.90
19972;DHT22;10147;16.402;102.848;2024-02-14T00:16:42;20.80;99.90
19972;DHT22;10147;16.402;102.848;2024-02-14T00:19:13;20.60;99.90
19972;DHT22;10147;16.402;102.848;2024-02-14T00:21:44;20.70;99.90
19972;DHT22;10147;16.402;102.848;2024-02-14T00:24:15;20.90;99.90
19972;DHT22;10147;16.402;102.848;2024-02-14T00:26:45;20.90;99.90
19972;DHT22;10147;16.402;102.848;2024-02-14T00:29:16;20.70;99.90
19972;DHT22;10147;16.402;102.848;2024-02-14T00:31:46;20.80;99.90
19972;DHT22;10147;16.402;102.848;2024-02-14T00:34:16;20.90;99.90
19972;DHT22;10147;16.402;102.848;2024-02-14T00:36:47;21.00;99.90
19972;DHT22;10147;16.402;102.848;2024-02-14T00:39:19;21.00;99.90
19972;DHT22;10147;16.402;102.848;2024-02-14T00:41:48;21.00;99.90
19972;DHT22;10147;16.402;102.848;2024-02-14T00:44:20;21.10;99.90
19972;DHT22;10147;16.402;102.848;2024-02-14T00:46:56;21.20;99.90
19972;DHT22;10147;16.402;102.848;2024-02-14T00:49:29;21.30;99.90
19972;DHT22;10147;16.402;102.848;2024-02-14T00:51:59;21.50;99.90
19972;DHT22;10147;16.402;102.848;2024-02-14T00:54:29;21.50;99.90
19972;DHT22;10147;16.402;102.848;2024-02-14T00:56:59;21.60;99.90
19972;DHT22;10147;16.402;102.848;2024-02-14T00:59:29;21.70;99.90
19972;DHT22;10147;16.402;102.848;2024-02-14T01:01:59;21.80;99.90
19972;DHT22;10147;16.402;102.848;2024-02-14T01:04:30;21.90;99.90
19972;DHT22;10147;16.402;102.848;2024-02-14T01:07:00;22.00;99.90
19972;DHT22;10147;16.402;102.848;2024-02-14T01:09:30;22.10;99.90
19972;DHT22;10147;16.402;102.848;2024-02-14T01:12:00;22.20;99.90
19972;DHT22;10147;16.402;102.848;2024-02-14T01:14:31;22.40;99.90
19972;DHT22;10147;16.402;102.848;2024-02-14T01:17:01;22.40;99.90
19972;DHT22;10147;16.402;102.848;2024-02-14T01:19:33;22.50;99.90
19972;DHT22;10147;16.402;102.848;2024-02-14T01:22:03;22.40;99.90
19972;DHT22;10147;16.402;102.848;2024-02-14T01:24:33;22.40;99.90
19972;DHT22;10147;16.402;102.848;2024-02-14T01:27:04;22.50;99.90
19972;DHT22;10147;16.402;102.848;2024-02-14T01:29:36;22.50;99.90
19972;DHT22;10147;16.402;102.848;2024-02-14T01:32:06;22.80;99.90
19972;DHT22;10147;16.402;102.848;2024-02-14T01:34:36;22.80;99.90
19972;DHT22;10147;16.402;102.848;2024-02-14T01:37:06;22.90;99.90
19972;DHT22;10147;16.402;102.848;2024-02-14T01:39:38;22.70;99.90
19972;DHT22;10147;16.402;102.848;2024-02-14T01:42:08;22.90;99.90
19972;DHT22;10147;16.402;102.848;2024-02-14T01:44:38;23.10;99.90
19972;DHT22;10147;16.402;102.848;2024-02-14T01:47:08;23.30;99.90
19972;DHT22;10147;16.402;102.848;2024-02-14T01:49:40;23.40;99.90
19972;DHT22;10147;16.402;102.848;2024-02-14T01:52:15;23.40;99.90
19972;DHT22;10147;16.402;102.848;2024-02-14T01:54:45;23.50;99.90
19972;DHT22;10147;16.402;102.848;2024-02-14T01:57:16;23.70;99.90
19972;DHT22;10147;16.402;102.848;2024-02-14T01:59:48;23.70;99.90
19972;DHT22;10147;16.402;102.848;2024-02-14T02:02:20;23.90;99.90
19972;DHT22;10147;16.402;102.848;2024-02-14T02:04:50;24.00;99.90
19972;DHT22;10147;16.402;102.848;2024-02-14T02:07:21;24.20;99.90
19972;DHT22;10147;16.402;102.848;2024-02-14T02:09:51;24.30;99.90
19972;DHT22;10147;16.402;102.848;2024-02-14T02:12:21;24.20;99.90
19972;DHT22;10147;16.402;102.848;2024-02-14T02:14:51;24.00;99.90
19972;DHT22;10147;16.402;102.848;2024-02-14T02:17:21;24.30;99.90
19972;DHT22;10147;16.402;102.848;2024-02-14T02:19:54;24.50;99.90
19972;DHT22;10147;16.402;102.848;2024-02-14T02:22:25;24.40;99.90
19972;DHT22;10147;16.402;102.848;2024-02-14T02:24:54;24.50;99.90
19972;DHT22;10147;16.402;102.848;2024-02-14T02:27:24;24.50;99.90
19972;DHT22;10147;16.402;102.848;2024-02-14T02:29:56;24.70;99.90
19972;DHT22;10147;16.402;102.848;2024-02-14T02:32:26;24.80;99.90
19972;DHT22;10147;16.402;102.848;2024-02-14T02:34:56;24.80;99.90
19972;DHT22;10147;16.402;102.848;2024-02-14T02:37:27;24.70;99.90
19972;DHT22;10147;16.402;102.848;2024-02-14T02:39:59;24.80;99.90
19972;DHT22;10147;16.402;102.848;2024-02-14T02:42:28;25.10;99.90
19972;DHT22;10147;16.402;102.848;2024-02-14T02:44:58;25.10;99.90
19972;DHT22;10147;16.402;102.848;2024-02-14T02:47:28;25.20;99.90
19972;DHT22;10147;16.402;102.848;2024-02-14T02:49:59;25.30;99.90
19972;DHT22;10147;16.402;102.848;2024-02-14T02:52:33;25.30;99.90
19972;DHT22;10147;16.402;102.848;2024-02-14T02:55:03;25.20;99.90
19972;DHT22;10147;16.402;102.848;2024-02-14T02:57:34;25.60;99.90
19972;DHT22;10147;16.402;102.848;2024-02-14T03:00:07;25.80;99.90
19972;DHT22;10147;16.402;102.848;2024-02-14T03:02:37;25.80;99.90
19972;DHT22;10147;16.402;102.848;2024-02-14T03:05:16;25.90;99.90
19972;DHT22;10147;16.402;102.848;2024-02-14T03:07:52;25.90;99.90
19972;DHT22;10147;16.402;102.848;2024-02-14T03:10:23;26.20;99.90
19972;DHT22;10147;16.402;102.848;2024-02-14T03:12:54;25.90;99.90
19972;DHT22;10147;16.402;102.848;2024-02-14T03:15:24;25.60;99.90
19972;DHT22;10147;16.402;102.848;2024-02-14T03:17:55;26.20;99.90
19972;DHT22;10147;16.402;102.848;2024-02-14T03:20:25;26.50;99.90
19972;DHT22;10147;16.402;102.848;2024-02-14T03:22:56;26.50;99.90
19972;DHT22;10147;16.402;102.848;2024-02-14T03:25:27;26.60;99.90
19972;DHT22;10147;16.402;102.848;2024-02-14T03:27:56;26.70;99.90
19972;DHT22;10147;16.402;102.848;2024-02-14T03:30:30;26.90;99.90
19972;DHT22;10147;16.402;102.848;2024-02-14T03:33:03;26.90;99.90
19972;DHT22;10147;16.402;102.848;2024-02-14T03:35:34;26.90;99.90
19972;DHT22;10147;16.402;102.848;2024-02-14T03:38:04;27.00;99.90
19972;DHT22;10147;16.402;102.848;2024-02-14T03:40:37;27.20;99.90
19972;DHT22;10147;16.402;102.848;2024-02-14T03:43:08;27.30;99.90
19972;DHT22;10147;16.402;102.848;2024-02-14T03:45:41;27.30;99.90
19972;DHT22;10147;16.402;102.848;2024-02-14T03:48:11;27.20;99.90
19972;DHT22;10147;16.402;102.848;2024-02-14T03:50:42;27.40;99.90
19972;DHT22;10147;16.402;102.848;2024-02-14T03:53:12;27.60;99.90
19972;DHT22;10147;16.402;102.848;2024-02-14T03:55:44;27.70;99.90
19972;DHT22;10147;16.402;102.848;2024-02-14T03:58:14;27.70;99.90
19972;DHT22;10147;16.402;102.848;2024-02-14T04:00:46;27.70;99.90
19972;DHT22;10147;16.402;102.848;2024-02-14T04:03:18;28.00;99.90
19972;DHT22;10147;16.402;102.848;2024-02-14T04:05:48;28.00;99.90
19972;DHT22;10147;16.402;102.848;2024-02-14T04:08:18;28.00;99.90
19972;DHT22;10147;16.402;102.848;2024-02-14T04:10:48;28.20;99.90
19972;DHT22;10147;16.402;102.848;2024-02-14T04:13:24;28.20;99.90
19972;DHT22;10147;16.402;102.848;2024-02-14T04:15:54;28.40;99.90
19972;DHT22;10147;16.402;102.848;2024-02-14T04:18:24;28.60;99.90
19972;DHT22;10147;16.402;102.848;2024-02-14T04:20:54;28.60;99.90
19972;DHT22;10147;16.402;102.848;2024-02-14T04:23:24;28.70;99.90
19972;DHT22;10147;16.402;102.848;2024-02-14T04:25:55;28.70;99.90
19972;DHT22;10147;16.402;102.848;2024-02-14T04:28:25;28.80;99.90
19972;DHT22;10147;16.402;102.848;2024-02-14T04:30:57;28.90;99.90
19972;DHT22;10147;16.402;102.848;2024-02-14T04:33:27;29.20;99.90
19972;DHT22;10147;16.402;102.848;2024-02-14T04:35:58;29.10;99.90
19972;DHT22;10147;16.402;102.848;2024-02-14T04:38:28;29.10;99.90
19972;DHT22;10147;16.402;102.848;2024-02-14T04:40:59;29.20;99.90
19972;DHT22;10147;16.402;102.848;2024-02-14T04:43:29;29.40;99.90
19972;DHT22;10147;16.402;102.848;2024-02-14T04:45:59;29.40;99.90
19972;DHT22;10147;16.402;102.848;2024-02-14T04:48:29;29.70;99.90
19972;DHT22;10147;16.402;102.848;2024-02-14T04:50:59;29.80;99.90
19972;DHT22;10147;16.402;102.848;2024-02-14T04:53:32;29.90;99.90
19972;DHT22;10147;16.402;102.848;2024-02-14T04:56:02;30.00;99.90
19972;DHT22;10147;16.402;102.848;2024-02-14T04:58:32;30.10;99.90
19972;DHT22;10147;16.402;102.848;2024-02-14T05:01:02;30.20;99.90
19972;DHT22;10147;16.402;102.848;2024-02-14T05:03:33;30.30;99.90
19972;DHT22;10147;16.402;102.848;2024-02-14T05:06:04;30.50;99.90
19972;DHT22;10147;16.402;102.848;2024-02-14T05:08:35;30.40;99.90
19972;DHT22;10147;16.402;102.848;2024-02-14T05:11:05;30.70;99.90
19972;DHT22;10147;16.402;102.848;2024-02-14T05:13:35;30.60;99.90
19972;DHT22;10147;16.402;102.848;2024-02-14T05:16:07;30.60;99.90
19972;DHT22;10147;16.402;102.848;2024-02-14T05:18:40;30.90;99.90
19972;DHT22;10147;16.402;102.848;2024-02-14T05:21:10;31.20;99.90
19972;DHT22;10147;16.402;102.848;2024-02-14T05:23:40;31.30;99.90
19972;DHT22;10147;16.402;102.848;2024-02-14T05:26:13;31.30;99.90
19972;DHT22;10147;16.402;102.848;2024-02-14T05:28:43;31.40;99.90
19972;DHT22;10147;16.402;102.848;2024-02-14T05:31:15;31.40;99.90
19972;DHT22;10147;16.402;102.848;2024-02-14T05:33:46;31.40;99.90
19972;DHT22;10147;16.402;102.848;2024-02-14T05:36:16;31.50;99.90
19972;DHT22;10147;16.402;102.848;2024-02-14T05:38:46;31.50;99.90
19972;DHT22;10147;16.402;102.848;2024-02-14T05:41:16;31.60;99.90
19972;DHT22;10147;16.402;102.848;2024-02-14T05:43:47;31.70;99.90
19972;DHT22;10147;16.402;102.848;2024-02-14T05:46:17;31.80;99.90
19972;DHT22;10147;16.402;102.848;2024-02-14T05:48:50;31.80;99.90
19972;DHT22;10147;16.402;102.848;2024-02-14T05:51:22;32.10;99.90
19972;DHT22;10147;16.402;102.848;2024-02-14T05:53:53;32.30;99.90
19972;DHT22;10147;16.402;102.848;2024-02-14T05:56:23;32.30;99.90
19972;DHT22;10147;16.402;102.848;2024-02-14T05:58:54;32.30;99.90
19972;DHT22;10147;16.402;102.848;2024-02-14T06:01:24;32.40;99.90
19972;DHT22;10147;16.402;102.848;2024-02-14T06:03:54;32.50;99.90
19972;DHT22;10147;16.402;102.848;2024-02-14T06:06:24;32.60;99.90
19972;DHT22;10147;16.402;102.848;2024-02-14T06:08:54;32.50;99.90
19972;DHT22;10147;16.402;102.848;2024-02-14T06:11:28;32.80;99.90
19972;DHT22;10147;16.402;102.848;2024-02-14T06:13:58;32.90;99.90
19972;DHT22;10147;16.402;102.848;2024-02-14T06:16:28;33.00;99.90
19972;DHT22;10147;16.402;102.848;2024-02-14T06:18:58;33.00;99.90
19972;DHT22;10147;16.402;102.848;2024-02-14T06:21:28;33.10;99.90
19972;DHT22;10147;16.402;102.848;2024-02-14T06:23:59;33.00;99.90
19972;DHT22;10147;16.402;102.848;2024-02-14T06:26:31;33.10;98.60
19972;DHT22;10147;16.402;102.848;2024-02-14T06:29:02;33.20;98.50
19972;DHT22;10147;16.402;102.848;2024-02-14T06:31:36;33.50;98.70
19972;DHT22;10147;16.402;102.848;2024-02-14T06:34:07;33.40;98.40
19972;DHT22;10147;16.402;102.848;2024-02-14T06:36:38;33.60;98.10
19972;DHT22;10147;16.402;102.848;2024-02-14T06:39:08;33.50;96.60
19972;DHT22;10147;16.402;102.848;2024-02-14T06:41:39;33.40;95.00
19972;DHT22;10147;16.402;102.848;2024-02-14T06:44:09;33.30;95.00
19972;DHT22;10147;16.402;102.848;2024-02-14T06:46:39;33.60;95.90
19972;DHT22;10147;16.402;102.848;2024-02-14T06:49:11;33.70;93.70
19972;DHT22;10147;16.402;102.848;2024-02-14T06:51:41;33.80;95.40
19972;DHT22;10147;16.402;102.848;2024-02-14T06:54:11;34.00;96.20
19972;DHT22;10147;16.402;102.848;2024-02-14T06:56:46;33.90;98.40
19972;DHT22;10147;16.402;102.848;2024-02-14T06:59:17;34.20;96.90
19972;DHT22;10147;16.402;102.848;2024-02-14T07:01:47;34.10;94.50
19972;DHT22;10147;16.402;102.848;2024-02-14T07:04:16;33.90;93.70
19972;DHT22;10147;16.402;102.848;2024-02-14T07:06:49;34.20;92.70
19972;DHT22;10147;16.402;102.848;2024-02-14T07:09:19;34.40;94.30
19972;DHT22;10147;16.402;102.848;2024-02-14T07:11:49;34.70;93.00
19972;DHT22;10147;16.402;102.848;2024-02-14T07:14:20;34.20;93.50
19972;DHT22;10147;16.402;102.848;2024-02-14T07:16:50;34.50;92.10
19972;DHT22;10147;16.402;102.848;2024-02-14T07:19:20;34.30;92.70
19972;DHT22;10147;16.402;102.848;2024-02-14T07:21:50;34.40;92.50
19972;DHT22;10147;16.402;102.848;2024-02-14T07:24:21;34.50;92.00
19972;DHT22;10147;16.402;102.848;2024-02-14T07:26:50;34.60;91.70
19972;DHT22;10147;16.402;102.848;2024-02-14T07:29:21;34.70;89.20
19972;DHT22;10147;16.402;102.848;2024-02-14T07:31:51;34.70;88.40
19972;DHT22;10147;16.402;102.848;2024-02-14T07:34:21;34.90;86.30
19972;DHT22;10147;16.402;102.848;2024-02-14T07:36:51;34.80;86.00
19972;DHT22;10147;16.402;102.848;2024-02-14T07:39:22;35.00;86.10
19972;DHT22;10147;16.402;102.848;2024-02-14T07:41:52;35.00;84.10
19972;DHT22;10147;16.402;102.848;2024-02-14T07:44:22;35.00;80.80
19972;DHT22;10147;16.402;102.848;2024-02-14T07:46:52;35.10;80.00
19972;DHT22;10147;16.402;102.848;2024-02-14T07:49:24;35.10;75.90
19972;DHT22;10147;16.402;102.848;2024-02-14T07:51:54;35.00;73.90
19972;DHT22;10147;16.402;102.848;2024-02-14T07:54:27;35.00;72.60
19972;DHT22;10147;16.402;102.848;2024-02-14T07:56:58;35.10;70.10
19972;DHT22;10147;16.402;102.848;2024-02-14T07:59:28;35.00;73.10
19972;DHT22;10147;16.402;102.848;2024-02-14T08:01:59;35.00;73.40
19972;DHT22;10147;16.402;102.848;2024-02-14T08:04:30;35.10;76.50
19972;DHT22;10147;16.402;102.848;2024-02-14T08:07:00;35.10;70.90
19972;DHT22;10147;16.402;102.848;2024-02-14T08:09:30;34.80;70.90
19972;DHT22;10147;16.402;102.848;2024-02-14T08:12:00;34.90;72.30
19972;DHT22;10147;16.402;102.848;2024-02-14T08:14:30;34.80;69.80
19972;DHT22;10147;16.402;102.848;2024-02-14T08:17:00;35.10;70.60
19972;DHT22;10147;16.402;102.848;2024-02-14T08:19:30;35.00;70.10
19972;DHT22;10147;16.402;102.848;2024-02-14T08:22:00;35.10;66.20
19972;DHT22;10147;16.402;102.848;2024-02-14T08:24:31;35.00;66.00
19972;DHT22;10147;16.402;102.848;2024-02-14T08:27:04;35.00;65.90
19972;DHT22;10147;16.402;102.848;2024-02-14T08:29:37;35.20;65.60
19972;DHT22;10147;16.402;102.848;2024-02-14T08:32:11;35.10;66.00
19972;DHT22;10147;16.402;102.848;2024-02-14T08:34:41;35.10;65.20
19972;DHT22;10147;16.402;102.848;2024-02-14T08:37:11;35.10;66.20
19972;DHT22;10147;16.402;102.848;2024-02-14T08:39:42;35.00;63.90
19972;DHT22;10147;16.402;102.848;2024-02-14T08:42:13;34.90;60.80
19972;DHT22;10147;16.402;102.848;2024-02-14T08:44:43;34.90;61.00
19972;DHT22;10147;16.402;102.848;2024-02-14T08:47:13;34.90;60.30
19972;DHT22;10147;16.402;102.848;2024-02-14T08:49:43;34.90;59.00
19972;DHT22;10147;16.402;102.848;2024-02-14T08:52:13;34.80;59.30
19972;DHT22;10147;16.402;102.848;2024-02-14T08:54:43;34.70;56.80
19972;DHT22;10147;16.402;102.848;2024-02-14T08:57:12;34.80;57.10
19972;DHT22;10147;16.402;102.848;2024-02-14T08:59:42;34.70;59.00
19972;DHT22;10147;16.402;102.848;2024-02-14T09:02:17;34.80;58.40
19972;DHT22;10147;16.402;102.848;2024-02-14T09:04:47;34.60;59.70
19972;DHT22;10147;16.402;102.848;2024-02-14T09:07:17;34.70;55.90
19972;DHT22;10147;16.402;102.848;2024-02-14T09:09:47;34.60;58.30
19972;DHT22;10147;16.402;102.848;2024-02-14T09:12:17;34.70;59.10
19972;DHT22;10147;16.402;102.848;2024-02-14T09:14:47;34.60;57.50
19972;DHT22;10147;16.402;102.848;2024-02-14T09:17:18;34.60;58.30
19972;DHT22;10147;16.402;102.848;2024-02-14T09:19:48;34.50;56.90
19972;DHT22;10147;16.402;102.848;2024-02-14T09:22:18;34.60;56.90
19972;DHT22;10147;16.402;102.848;2024-02-14T09:24:51;34.40;52.70
19972;DHT22;10147;16.402;102.848;2024-02-14T09:27:22;34.50;52.80
19972;DHT22;10147;16.402;102.848;2024-02-14T09:29:52;34.50;54.90
19972;DHT22;10147;16.402;102.848;2024-02-14T09:32:24;34.40;54.10
19972;DHT22;10147;16.402;102.848;2024-02-14T09:34:54;34.30;51.20
19972;DHT22;10147;16.402;102.848;2024-02-14T09:37:24;34.30;51.20
19972;DHT22;10147;16.402;102.848;2024-02-14T09:39:55;34.30;51.80
19972;DHT22;10147;16.402;102.848;2024-02-14T09:42:33;34.30;51.30
19972;DHT22;10147;16.402;102.848;2024-02-14T09:45:06;34.20;54.00
19972;DHT22;10147;16.402;102.848;2024-02-14T09:47:41;34.20;51.90
19972;DHT22;10147;16.402;102.848;2024-02-14T09:50:12;34.10;53.00
19972;DHT22;10147;16.402;102.848;2024-02-14T09:52:43;34.00;51.20
19972;DHT22;10147;16.402;102.848;2024-02-14T09:55:16;33.90;53.30
19972;DHT22;10147;16.402;102.848;2024-02-14T09:57:47;33.90;51.90
19972;DHT22;10147;16.402;102.848;2024-02-14T10:00:19;33.80;50.80
19972;DHT22;10147;16.402;102.848;2024-02-14T10:02:50;33.70;48.30
19972;DHT22;10147;16.402;102.848;2024-02-14T10:05:21;33.70;49.20
19972;DHT22;10147;16.402;102.848;2024-02-14T10:07:50;33.60;50.30
19972;DHT22;10147;16.402;102.848;2024-02-14T10:10:21;33.50;49.60
19972;DHT22;10147;16.402;102.848;2024-02-14T10:12:54;33.50;50.30
19972;DHT22;10147;16.402;102.848;2024-02-14T10:15:24;33.40;49.10
19972;DHT22;10147;16.402;102.848;2024-02-14T10:17:55;33.40;48.00
19972;DHT22;10147;16.402;102.848;2024-02-14T10:20:26;33.30;48.40
19972;DHT22;10147;16.402;102.848;2024-02-14T10:23:07;33.20;50.20
19972;DHT22;10147;16.402;102.848;2024-02-14T10:25:38;33.10;48.70
19972;DHT22;10147;16.402;102.848;2024-02-14T10:28:09;33.10;49.60
19972;DHT22;10147;16.402;102.848;2024-02-14T10:30:40;33.00;49.70
19972;DHT22;10147;16.402;102.848;2024-02-14T10:33:15;32.90;48.90
19972;DHT22;10147;16.402;102.848;2024-02-14T10:35:55;32.90;52.30
19972;DHT22;10147;16.402;102.848;2024-02-14T10:38:31;32.70;51.80
19972;DHT22;10147;16.402;102.848;2024-02-14T10:41:05;32.60;50.60
19972;DHT22;10147;16.402;102.848;2024-02-14T10:43:41;32.50;51.20
19972;DHT22;10147;16.402;102.848;2024-02-14T10:46:26;32.50;51.40
19972;DHT22;10147;16.402;102.848;2024-02-14T10:49:05;32.40;54.00
19972;DHT22;10147;16.402;102.848;2024-02-14T10:51:38;32.30;55.00
19972;DHT22;10147;16.402;102.848;2024-02-14T10:54:11;32.20;57.80
19972;DHT22;10147;16.402;102.848;2024-02-14T10:56:48;32.10;57.60
19972;DHT22;10147;16.402;102.848;2024-02-14T10:59:21;32.10;57.30
19972;DHT22;10147;16.402;102.848;2024-02-14T11:01:54;32.00;60.00
19972;DHT22;10147;16.402;102.848;2024-02-14T11:04:27;31.60;61.00
19972;DHT22;10147;16.402;102.848;2024-02-14T11:06:59;31.60;61.90
19972;DHT22;10147;16.402;102.848;2024-02-14T11:09:38;31.60;63.60
19972;DHT22;10147;16.402;102.848;2024-02-14T11:12:11;31.50;65.00
19972;DHT22;10147;16.402;102.848;2024-02-14T11:14:42;31.50;64.70
19972;DHT22;10147;16.402;102.848;2024-02-14T11:17:15;31.50;64.90
19972;DHT22;10147;16.402;102.848;2024-02-14T11:19:48;31.50;64.50
19972;DHT22;10147;16.402;102.848;2024-02-14T11:22:20;31.30;65.80
19972;DHT22;10147;16.402;102.848;2024-02-14T11:24:52;31.20;67.20
19972;DHT22;10147;16.402;102.848;2024-02-14T11:27:23;31.10;69.30
19972;DHT22;10147;16.402;102.848;2024-02-14T11:30:02;31.00;72.80
19972;DHT22;10147;16.402;102.848;2024-02-14T11:32:37;30.80;75.70
19972;DHT22;10147;16.402;102.848;2024-02-14T11:35:14;30.80;74.90
19972;DHT22;10147;16.402;102.848;2024-02-14T11:37:51;30.70;75.50
19972;DHT22;10147;16.402;102.848;2024-02-14T11:40:23;30.50;75.10
19972;DHT22;10147;16.402;102.848;2024-02-14T11:42:53;30.40;78.50
19972;DHT22;10147;16.402;102.848;2024-02-14T11:45:25;30.30;78.00
19972;DHT22;10147;16.402;102.848;2024-02-14T11:47:55;30.10;77.80
19972;DHT22;10147;16.402;102.848;2024-02-14T11:50:26;30.00;77.50
19972;DHT22;10147;16.402;102.848;2024-02-14T11:52:58;29.90;79.00
19972;DHT22;10147;16.402;102.848;2024-02-14T11:55:30;30.00;81.10
19972;DHT22;10147;16.402;102.848;2024-02-14T11:58:07;29.80;84.10
19972;DHT22;10147;16.402;102.848;2024-02-14T12:00:44;29.70;84.60
19972;DHT22;10147;16.402;102.848;2024-02-14T12:03:22;29.90;86.70
19972;DHT22;10147;16.402;102.848;2024-02-14T12:05:54;29.90;89.40
19972;DHT22;10147;16.402;102.848;2024-02-14T12:08:26;29.80;91.60
19972;DHT22;10147;16.402;102.848;2024-02-14T12:10:57;29.50;93.70
19972;DHT22;10147;16.402;102.848;2024-02-14T12:13:31;29.50;94.90
19972;DHT22;10147;16.402;102.848;2024-02-14T12:16:08;29.50;95.20
19972;DHT22;10147;16.402;102.848;2024-02-14T12:18:39;29.30;97.00
19972;DHT22;10147;16.402;102.848;2024-02-14T12:21:10;29.10;98.00
19972;DHT22;10147;16.402;102.848;2024-02-14T12:23:42;28.90;99.50
19972;DHT22;10147;16.402;102.848;2024-02-14T12:26:14;29.20;99.90
19972;DHT22;10147;16.402;102.848;2024-02-14T12:28:52;29.20;99.90
19972;DHT22;10147;16.402;102.848;2024-02-14T12:31:24;29.20;99.90
19972;DHT22;10147;16.402;102.848;2024-02-14T12:33:55;29.30;99.90
19972;DHT22;10147;16.402;102.848;2024-02-14T12:36:33;29.00;99.90
19972;DHT22;10147;16.402;102.848;2024-02-14T12:39:04;28.90;99.90
19972;DHT22;10147;16.402;102.848;2024-02-14T12:41:34;29.10;99.90
19972;DHT22;10147;16.402;102.848;2024-02-14T12:44:07;29.10;99.90
19972;DHT22;10147;16.402;102.848;2024-02-14T12:46:40;29.20;99.90
19972;DHT22;10147;16.402;102.848;2024-02-14T12:49:10;29.10;99.90
19972;DHT22;10147;16.402;102.848;2024-02-14T12:51:41;29.10;99.90
19972;DHT22;10147;16.402;102.848;2024-02-14T12:54:12;28.80;99.90
19972;DHT22;10147;16.402;102.848;2024-02-14T12:56:45;28.80;99.90
19972;DHT22;10147;16.402;102.848;2024-02-14T12:59:18;28.70;99.90
19972;DHT22;10147;16.402;102.848;2024-02-14T13:01:51;28.70;99.90
19972;DHT22;10147;16.402;102.848;2024-02-14T13:04:21;28.50;99.90
19972;DHT22;10147;16.402;102.848;2024-02-14T13:06:52;28.50;99.90
19972;DHT22;10147;16.402;102.848;2024-02-14T13:09:24;28.40;99.90
19972;DHT22;10147;16.402;102.848;2024-02-14T13:11:55;28.40;99.90
19972;DHT22;10147;16.402;102.848;2024-02-14T13:14:25;28.10;99.90
19972;DHT22;10147;16.402;102.848;2024-02-14T13:16:56;28.20;99.90
19972;DHT22;10147;16.402;102.848;2024-02-14T13:19:27;28.10;99.90
19972;DHT22;10147;16.402;102.848;2024-02-14T13:21:57;28.10;99.90
19972;DHT22;10147;16.402;102.848;2024-02-14T13:24:28;27.90;99.90
19972;DHT22;10147;16.402;102.848;2024-02-14T13:27:00;27.60;99.90
19972;DHT22;10147;16.402;102.848;2024-02-14T13:29:32;27.60;99.90
19972;DHT22;10147;16.402;102.848;2024-02-14T13:32:02;27.70;99.90
19972;DHT22;10147;16.402;102.848;2024-02-14T13:34:35;27.40;99.90
19972;DHT22;10147;16.402;102.848;2024-02-14T13:37:09;27.30;99.90
19972;DHT22;10147;16.402;102.848;2024-02-14T13:39:42;27.80;99.90
19972;DHT22;10147;16.402;102.848;2024-02-14T13:42:13;27.50;99.90
19972;DHT22;10147;16.402;102.848;2024-02-14T13:44:44;27.70;99.90
19972;DHT22;10147;16.402;102.848;2024-02-14T13:47:18;27.80;99.90
19972;DHT22;10147;16.402;102.848;2024-02-14T13:49:48;27.80;99.90
19972;DHT22;10147;16.402;102.848;2024-02-14T13:52:18;27.70;99.90
19972;DHT22;10147;16.402;102.848;2024-02-14T13:54:50;27.30;99.90
19972;DHT22;10147;16.402;102.848;2024-02-14T13:57:21;27.30;99.90
19972;DHT22;10147;16.402;102.848;2024-02-14T13:59:52;27.40;99.90
19972;DHT22;10147;16.402;102.848;2024-02-14T14:02:23;27.50;99.90
19972;DHT22;10147;16.402;102.848;2024-02-14T14:04:54;27.60;99.90
19972;DHT22;10147;16.402;102.848;2024-02-14T14:07:25;26.90;99.90
19972;DHT22;10147;16.402;102.848;2024-02-14T14:09:56;26.70;99.90
19972;DHT22;10147;16.402;102.848;2024-02-14T14:12:30;26.60;99.90
19972;DHT22;10147;16.402;102.848;2024-02-14T14:15:01;27.00;99.90
19972;DHT22;10147;16.402;102.848;2024-02-14T14:17:32;27.20;99.90
19972;DHT22;10147;16.402;102.848;2024-02-14T14:20:03;27.30;99.90
19972;DHT22;10147;16.402;102.848;2024-02-14T14:22:37;27.30;99.90
19972;DHT22;10147;16.402;102.848;2024-02-14T14:25:09;27.20;99.90
19972;DHT22;10147;16.402;102.848;2024-02-14T14:27:43;27.20;99.90
19972;DHT22;10147;16.402;102.848;2024-02-14T14:30:14;27.10;99.90
19972;DHT22;10147;16.402;102.848;2024-02-14T14:32:46;27.00;99.90
19972;DHT22;10147;16.402;102.848;2024-02-14T14:35:17;27.00;99.90
19972;DHT22;10147;16.402;102.848;2024-02-14T14:37:49;26.80;99.90
19972;DHT22;10147;16.402;102.848;2024-02-14T14:40:24;26.80;99.90
19972;DHT22;10147;16.402;102.848;2024-02-14T14:42:57;26.50;99.90
19972;DHT22;10147;16.402;102.848;2024-02-14T14:45:29;26.50;99.90
19972;DHT22;10147;16.402;102.848;2024-02-14T14:48:01;26.80;99.90
19972;DHT22;10147;16.402;102.848;2024-02-14T14:50:36;26.80;99.90
19972;DHT22;10147;16.402;102.848;2024-02-14T14:53:09;26.70;99.90
19972;DHT22;10147;16.402;102.848;2024-02-14T14:56:02;26.70;99.90
19972;DHT22;10147;16.402;102.848;2024-02-14T14:58:36;26.40;99.90
19972;DHT22;10147;16.402;102.848;2024-02-14T15:01:08;26.40;99.90
19972;DHT22;10147;16.402;102.848;2024-02-14T15:03:39;26.40;99.90
19972;DHT22;10147;16.402;102.848;2024-02-14T15:06:10;26.40;99.90
19972;DHT22;10147;16.402;102.848;2024-02-14T15:08:40;26.60;99.90
19972;DHT22;10147;16.402;102.848;2024-02-14T15:11:14;26.40;99.90
19972;DHT22;10147;16.402;102.848;2024-02-14T15:13:49;26.50;99.90
19972;DHT22;10147;16.402;102.848;2024-02-14T15:16:19;26.40;99.90
19972;DHT22;10147;16.402;102.848;2024-02-14T15:18:52;26.40;99.90
19972;DHT22;10147;16.402;102.848;2024-02-14T15:21:23;26.50;99.90
19972;DHT22;10147;16.402;102.848;2024-02-14T15:23:54;26.50;99.90
19972;DHT22;10147;16.402;102.848;2024-02-14T15:26:24;26.40;99.90
19972;DHT22;10147;16.402;102.848;2024-02-14T15:28:56;26.20;99.90